sensor_id;sensor_type;location;lat;lon;timestamp;P1;durP1;ratioP1;P2;durP2;ratioP2
25922;SDS011;13725;51.170;4.442;2023-02-08T00:01:45;38.20;;;17.73;;
25922;SDS011;13725;51.170;4.442;2023-02-08T00:04:11;36.97;;;16.85;;
25922;SDS011;13725;51.170;4.442;2023-02-08T00:06:37;35.90;;;17.73;;
25922;SDS011;13725;51.170;4.442;2023-02-08T00:09:03;42.53;;;17.77;;
25922;SDS011;13725;51.170;4.442;2023-02-08T00:11:29;35.90;;;16.50;;
25922;SDS011;13725;51.170;4.442;2023-02-08T00:13:54;34.25;;;16.60;;
25922;SDS011;13725;51.170;4.442;2023-02-08T00:16:20;35.80;;;17.05;;
25922;SDS011;13725;51.170;4.442;2023-02-08T00:18:46;36.13;;;16.77;;
25922;SDS011;13725;51.170;4.442;2023-02-08T00:21:12;36.28;;;17.38;;
25922;SDS011;13725;51.170;4.442;2023-02-08T00:23:42;37.95;;;17.90;;
25922;SDS011;13725;51.170;4.442;2023-02-08T00:26:09;39.55;;;18.77;;
25922;SDS011;13725;51.170;4.442;2023-02-08T00:28:34;37.70;;;17.17;;
25922;SDS011;13725;51.170;4.442;2023-02-08T00:31:01;35.55;;;17.38;;
25922;SDS011;13725;51.170;4.442;2023-02-08T00:33:27;36.05;;;18.05;;
25922;SDS011;13725;51.170;4.442;2023-02-08T00:35:59;35.38;;;15.82;;
25922;SDS011;13725;51.170;4.442;2023-02-08T00:38:26;37.08;;;16.52;;
25922;SDS011;13725;51.170;4.442;2023-02-08T00:40:53;34.15;;;16.38;;
25922;SDS011;13725;51.170;4.442;2023-02-08T00:43:18;34.38;;;17.23;;
25922;SDS011;13725;51.170;4.442;2023-02-08T00:45:44;36.35;;;16.00;;
25922;SDS011;13725;51.170;4.442;2023-02-08T00:48:10;31.80;;;16.02;;
25922;SDS011;13725;51.170;4.442;2023-02-08T00:50:38;33.80;;;15.90;;
25922;SDS011;13725;51.170;4.442;2023-02-08T00:53:03;35.22;;;16.77;;
25922;SDS011;13725;51.170;4.442;2023-02-08T00:55:29;36.35;;;16.08;;
25922;SDS011;13725;51.170;4.442;2023-02-08T00:57:55;34.88;;;16.27;;
25922;SDS011;13725;51.170;4.442;2023-02-08T01:00:21;38.72;;;16.88;;
25922;SDS011;13725;51.170;4.442;2023-02-08T01:02:47;37.65;;;17.15;;
25922;SDS011;13725;51.170;4.442;2023-02-08T01:05:13;36.35;;;15.95;;
25922;SDS011;13725;51.170;4.442;2023-02-08T01:07:38;33.08;;;15.63;;
25922;SDS011;13725;51.170;4.442;2023-02-08T01:10:05;44.03;;;17.50;;
25922;SDS011;13725;51.170;4.442;2023-02-08T01:12:33;35.92;;;16.60;;
25922;SDS011;13725;51.170;4.442;2023-02-08T01:14:58;38.15;;;16.42;;
25922;SDS011;13725;51.170;4.442;2023-02-08T01:17:24;35.60;;;16.70;;
25922;SDS011;13725;51.170;4.442;2023-02-08T01:19:50;34.88;;;16.50;;
25922;SDS011;13725;51.170;4.442;2023-02-08T01:22:16;36.97;;;16.73;;
25922;SDS011;13725;51.170;4.442;2023-02-08T01:24:42;33.70;;;16.45;;
25922;SDS011;13725;51.170;4.442;2023-02-08T01:27:08;34.83;;;16.70;;
25922;SDS011;13725;51.170;4.442;2023-02-08T01:29:33;31.58;;;16.27;;
25922;SDS011;13725;51.170;4.442;2023-02-08T01:31:59;35.15;;;17.60;;
25922;SDS011;13725;51.170;4.442;2023-02-08T01:34:27;38.03;;;16.00;;
25922;SDS011;13725;51.170;4.442;2023-02-08T01:36:53;37.90;;;18.08;;
25922;SDS011;13725;51.170;4.442;2023-02-08T01:39:19;36.50;;;16.77;;
25922;SDS011;13725;51.170;4.442;2023-02-08T01:41:44;41.47;;;17.88;;
25922;SDS011;13725;51.170;4.442;2023-02-08T01:46:37;35.00;;;16.77;;
25922;SDS011;13725;51.170;4.442;2023-02-08T01:49:11;36.40;;;17.42;;
25922;SDS011;13725;51.170;4.442;2023-02-08T01:52:06;35.78;;;17.00;;
25922;SDS011;13725;51.170;4.442;2023-02-08T01:54:42;38.80;;;17.13;;
25922;SDS011;13725;51.170;4.442;2023-02-08T01:57:13;37.47;;;15.95;;
25922;SDS011;13725;51.170;4.442;2023-02-08T01:59:40;34.67;;;14.65;;
25922;SDS011;13725;51.170;4.442;2023-02-08T02:02:12;35.03;;;16.42;;
25922;SDS011;13725;51.170;4.442;2023-02-08T02:04:40;36.10;;;16.50;;
25922;SDS011;13725;51.170;4.442;2023-02-08T02:07:06;39.90;;;16.33;;
25922;SDS011;13725;51.170;4.442;2023-02-08T02:09:37;29.48;;;15.40;;
25922;SDS011;13725;51.170;4.442;2023-02-08T02:12:25;33.65;;;15.48;;
25922;SDS011;13725;51.170;4.442;2023-02-08T02:14:51;36.28;;;17.58;;
25922;SDS011;13725;51.170;4.442;2023-02-08T02:17:18;32.50;;;15.80;;
25922;SDS011;13725;51.170;4.442;2023-02-08T02:19:55;32.60;;;16.27;;
25922;SDS011;13725;51.170;4.442;2023-02-08T02:33:50;34.25;;;15.75;;
25922;SDS011;13725;51.170;4.442;2023-02-08T02:39:09;40.35;;;15.90;;
25922;SDS011;13725;51.170;4.442;2023-02-08T02:50:11;36.22;;;15.77;;
25922;SDS011;13725;51.170;4.442;2023-02-08T02:52:43;34.80;;;15.50;;
25922;SDS011;13725;51.170;4.442;2023-02-08T02:55:29;34.33;;;16.45;;
25922;SDS011;13725;51.170;4.442;2023-02-08T02:58:00;35.63;;;15.98;;
25922;SDS011;13725;51.170;4.442;2023-02-08T03:00:28;36.65;;;16.23;;
25922;SDS011;13725;51.170;4.442;2023-02-08T03:02:56;32.58;;;15.98;;
25922;SDS011;13725;51.170;4.442;2023-02-08T03:05:23;34.78;;;15.40;;
25922;SDS011;13725;51.170;4.442;2023-02-08T03:16:30;31.95;;;15.20;;
25922;SDS011;13725;51.170;4.442;2023-02-08T03:22:18;35.10;;;16.00;;
25922;SDS011;13725;51.170;4.442;2023-02-08T03:25:18;34.75;;;14.55;;
25922;SDS011;13725;51.170;4.442;2023-02-08T03:30:37;34.90;;;16.38;;
25922;SDS011;13725;51.170;4.442;2023-02-08T03:33:12;34.95;;;16.08;;
25922;SDS011;13725;51.170;4.442;2023-02-08T03:36:02;36.95;;;16.15;;
25922;SDS011;13725;51.170;4.442;2023-02-08T03:38:33;32.95;;;15.32;;
25922;SDS011;13725;51.170;4.442;2023-02-08T03:41:04;40.30;;;16.67;;
25922;SDS011;13725;51.170;4.442;2023-02-08T03:46:05;34.05;;;15.30;;
25922;SDS011;13725;51.170;4.442;2023-02-08T03:48:42;36.95;;;15.88;;
25922;SDS011;13725;51.170;4.442;2023-02-08T03:51:11;33.45;;;16.45;;
25922;SDS011;13725;51.170;4.442;2023-02-08T03:53:40;34.88;;;16.42;;
25922;SDS011;13725;51.170;4.442;2023-02-08T03:56:16;34.90;;;15.63;;
25922;SDS011;13725;51.170;4.442;2023-02-08T03:58:48;34.40;;;16.33;;
25922;SDS011;13725;51.170;4.442;2023-02-08T04:03:56;33.83;;;16.63;;
25922;SDS011;13725;51.170;4.442;2023-02-08T04:06:23;31.10;;;15.48;;
25922;SDS011;13725;51.170;4.442;2023-02-08T04:08:49;39.90;;;16.63;;
25922;SDS011;13725;51.170;4.442;2023-02-08T04:11:15;38.20;;;16.63;;
25922;SDS011;13725;51.170;4.442;2023-02-08T04:13:41;35.80;;;16.40;;
25922;SDS011;13725;51.170;4.442;2023-02-08T04:16:08;37.10;;;17.40;;
25922;SDS011;13725;51.170;4.442;2023-02-08T04:18:35;30.25;;;16.42;;
25922;SDS011;13725;51.170;4.442;2023-02-08T04:21:01;35.97;;;17.75;;
25922;SDS011;13725;51.170;4.442;2023-02-08T04:23:26;40.85;;;18.02;;
25922;SDS011;13725;51.170;4.442;2023-02-08T04:25:52;37.08;;;16.63;;
25922;SDS011;13725;51.170;4.442;2023-02-08T04:28:18;38.55;;;16.55;;
25922;SDS011;13725;51.170;4.442;2023-02-08T04:30:43;37.55;;;16.17;;
25922;SDS011;13725;51.170;4.442;2023-02-08T04:33:09;42.60;;;16.73;;
25922;SDS011;13725;51.170;4.442;2023-02-08T04:35:37;38.75;;;17.10;;
25922;SDS011;13725;51.170;4.442;2023-02-08T04:38:03;40.33;;;17.83;;
25922;SDS011;13725;51.170;4.442;2023-02-08T04:40:28;41.55;;;17.38;;
25922;SDS011;13725;51.170;4.442;2023-02-08T04:42:55;42.53;;;18.50;;
25922;SDS011;13725;51.170;4.442;2023-02-08T04:45:20;36.63;;;16.17;;
25922;SDS011;13725;51.170;4.442;2023-02-08T04:47:46;40.72;;;17.25;;
25922;SDS011;13725;51.170;4.442;2023-02-08T04:50:12;37.53;;;18.05;;
25922;SDS011;13725;51.170;4.442;2023-02-08T04:52:38;39.10;;;16.98;;
25922;SDS011;13725;51.170;4.442;2023-02-08T04:55:04;38.60;;;17.80;;
25922;SDS011;13725;51.170;4.442;2023-02-08T04:57:30;39.70;;;17.45;;
25922;SDS011;13725;51.170;4.442;2023-02-08T04:59:55;35.13;;;16.40;;
25922;SDS011;13725;51.170;4.442;2023-02-08T05:02:21;34.78;;;16.55;;
25922;SDS011;13725;51.170;4.442;2023-02-08T05:04:47;34.00;;;16.75;;
25922;SDS011;13725;51.170;4.442;2023-02-08T05:07:12;34.42;;;16.23;;
25922;SDS011;13725;51.170;4.442;2023-02-08T05:09:38;39.15;;;17.23;;
25922;SDS011;13725;51.170;4.442;2023-02-08T05:12:04;38.13;;;16.40;;
25922;SDS011;13725;51.170;4.442;2023-02-08T05:14:30;37.25;;;16.98;;
25922;SDS011;13725;51.170;4.442;2023-02-08T05:16:55;37.83;;;17.52;;
25922;SDS011;13725;51.170;4.442;2023-02-08T05:19:21;38.72;;;16.70;;
25922;SDS011;13725;51.170;4.442;2023-02-08T05:21:47;35.15;;;16.48;;
25922;SDS011;13725;51.170;4.442;2023-02-08T05:24:12;38.17;;;16.25;;
25922;SDS011;13725;51.170;4.442;2023-02-08T05:26:39;38.88;;;16.70;;
25922;SDS011;13725;51.170;4.442;2023-02-08T05:29:05;38.92;;;17.35;;
25922;SDS011;13725;51.170;4.442;2023-02-08T05:31:31;34.75;;;17.30;;
25922;SDS011;13725;51.170;4.442;2023-02-08T05:33:57;40.38;;;16.10;;
25922;SDS011;13725;51.170;4.442;2023-02-08T05:36:22;34.58;;;16.67;;
25922;SDS011;13725;51.170;4.442;2023-02-08T05:38:48;34.03;;;16.92;;
25922;SDS011;13725;51.170;4.442;2023-02-08T05:41:14;39.72;;;18.25;;
25922;SDS011;13725;51.170;4.442;2023-02-08T05:43:40;36.88;;;17.17;;
25922;SDS011;13725;51.170;4.442;2023-02-08T05:46:06;34.05;;;17.20;;
25922;SDS011;13725;51.170;4.442;2023-02-08T05:48:32;34.00;;;16.05;;
25922;SDS011;13725;51.170;4.442;2023-02-08T05:50:58;36.05;;;16.83;;
25922;SDS011;13725;51.170;4.442;2023-02-08T05:53:24;40.83;;;17.00;;
25922;SDS011;13725;51.170;4.442;2023-02-08T05:55:51;34.92;;;16.85;;
25922;SDS011;13725;51.170;4.442;2023-02-08T05:58:17;41.53;;;16.92;;
25922;SDS011;13725;51.170;4.442;2023-02-08T06:00:43;38.92;;;16.25;;
25922;SDS011;13725;51.170;4.442;2023-02-08T06:03:10;36.50;;;16.85;;
25922;SDS011;13725;51.170;4.442;2023-02-08T06:05:36;38.50;;;16.55;;
25922;SDS011;13725;51.170;4.442;2023-02-08T06:08:03;36.00;;;16.17;;
25922;SDS011;13725;51.170;4.442;2023-02-08T06:10:29;39.78;;;16.73;;
25922;SDS011;13725;51.170;4.442;2023-02-08T06:12:55;37.75;;;17.58;;
25922;SDS011;13725;51.170;4.442;2023-02-08T06:15:21;38.35;;;16.83;;
25922;SDS011;13725;51.170;4.442;2023-02-08T06:17:47;42.20;;;17.80;;
25922;SDS011;13725;51.170;4.442;2023-02-08T06:20:13;36.47;;;17.23;;
25922;SDS011;13725;51.170;4.442;2023-02-08T06:22:38;38.58;;;16.95;;
25922;SDS011;13725;51.170;4.442;2023-02-08T06:25:04;35.22;;;16.60;;
25922;SDS011;13725;51.170;4.442;2023-02-08T06:27:31;40.40;;;17.00;;
25922;SDS011;13725;51.170;4.442;2023-02-08T06:29:56;39.08;;;17.63;;
25922;SDS011;13725;51.170;4.442;2023-02-08T06:32:22;34.92;;;16.92;;
25922;SDS011;13725;51.170;4.442;2023-02-08T06:34:48;45.35;;;18.42;;
25922;SDS011;13725;51.170;4.442;2023-02-08T06:37:15;35.30;;;16.00;;
25922;SDS011;13725;51.170;4.442;2023-02-08T06:39:41;41.83;;;16.88;;
25922;SDS011;13725;51.170;4.442;2023-02-08T06:42:07;43.55;;;16.70;;
25922;SDS011;13725;51.170;4.442;2023-02-08T06:44:33;35.95;;;17.15;;
25922;SDS011;13725;51.170;4.442;2023-02-08T06:46:58;39.60;;;16.63;;
25922;SDS011;13725;51.170;4.442;2023-02-08T06:49:24;35.10;;;17.25;;
25922;SDS011;13725;51.170;4.442;2023-02-08T06:51:50;37.95;;;16.73;;
25922;SDS011;13725;51.170;4.442;2023-02-08T06:54:16;37.28;;;17.08;;
25922;SDS011;13725;51.170;4.442;2023-02-08T06:56:42;37.30;;;16.98;;
25922;SDS011;13725;51.170;4.442;2023-02-08T06:59:07;37.95;;;17.13;;
25922;SDS011;13725;51.170;4.442;2023-02-08T07:01:33;34.10;;;16.60;;
25922;SDS011;13725;51.170;4.442;2023-02-08T07:03:59;37.50;;;16.73;;
25922;SDS011;13725;51.170;4.442;2023-02-08T07:06:25;35.15;;;17.33;;
25922;SDS011;13725;51.170;4.442;2023-02-08T07:08:50;42.60;;;17.25;;
25922;SDS011;13725;51.170;4.442;2023-02-08T07:11:19;36.95;;;17.67;;
25922;SDS011;13725;51.170;4.442;2023-02-08T07:13:46;39.80;;;17.20;;
25922;SDS011;13725;51.170;4.442;2023-02-08T07:16:13;40.70;;;17.83;;
25922;SDS011;13725;51.170;4.442;2023-02-08T07:18:39;39.08;;;17.45;;
25922;SDS011;13725;51.170;4.442;2023-02-08T07:21:05;41.95;;;18.65;;
25922;SDS011;13725;51.170;4.442;2023-02-08T07:23:30;42.35;;;17.52;;
25922;SDS011;13725;51.170;4.442;2023-02-08T07:28:22;39.83;;;17.83;;
25922;SDS011;13725;51.170;4.442;2023-02-08T07:30:48;39.60;;;17.58;;
25922;SDS011;13725;51.170;4.442;2023-02-08T07:33:13;41.22;;;18.17;;
25922;SDS011;13725;51.170;4.442;2023-02-08T07:35:39;42.92;;;18.10;;
25922;SDS011;13725;51.170;4.442;2023-02-08T07:38:05;38.50;;;16.75;;
25922;SDS011;13725;51.170;4.442;2023-02-08T07:40:30;42.00;;;18.33;;
25922;SDS011;13725;51.170;4.442;2023-02-08T07:42:56;36.45;;;17.00;;
25922;SDS011;13725;51.170;4.442;2023-02-08T07:45:36;39.22;;;17.95;;
25922;SDS011;13725;51.170;4.442;2023-02-08T07:48:02;37.67;;;17.05;;
25922;SDS011;13725;51.170;4.442;2023-02-08T07:50:28;42.03;;;17.30;;
25922;SDS011;13725;51.170;4.442;2023-02-08T07:52:53;50.85;;;18.88;;
25922;SDS011;13725;51.170;4.442;2023-02-08T07:55:19;43.97;;;18.10;;
25922;SDS011;13725;51.170;4.442;2023-02-08T07:57:45;32.17;;;17.02;;
25922;SDS011;13725;51.170;4.442;2023-02-08T08:00:12;38.15;;;17.50;;
25922;SDS011;13725;51.170;4.442;2023-02-08T08:02:40;43.78;;;18.38;;
25922;SDS011;13725;51.170;4.442;2023-02-08T08:05:06;42.10;;;17.45;;
25922;SDS011;13725;51.170;4.442;2023-02-08T08:07:32;30.98;;;15.70;;
25922;SDS011;13725;51.170;4.442;2023-02-08T08:09:58;33.42;;;16.48;;
25922;SDS011;13725;51.170;4.442;2023-02-08T08:12:24;39.08;;;16.88;;
25922;SDS011;13725;51.170;4.442;2023-02-08T08:14:50;35.17;;;15.48;;
25922;SDS011;13725;51.170;4.442;2023-02-08T08:17:16;29.33;;;15.52;;
25922;SDS011;13725;51.170;4.442;2023-02-08T08:19:42;32.05;;;15.55;;
25922;SDS011;13725;51.170;4.442;2023-02-08T08:22:08;31.70;;;15.02;;
25922;SDS011;13725;51.170;4.442;2023-02-08T08:24:34;33.75;;;15.15;;
25922;SDS011;13725;51.170;4.442;2023-02-08T08:27:00;31.40;;;15.48;;
25922;SDS011;13725;51.170;4.442;2023-02-08T08:29:26;29.13;;;13.73;;
25922;SDS011;13725;51.170;4.442;2023-02-08T08:31:52;32.20;;;14.43;;
25922;SDS011;13725;51.170;4.442;2023-02-08T08:34:20;29.92;;;13.85;;
25922;SDS011;13725;51.170;4.442;2023-02-08T08:36:49;25.02;;;13.48;;
25922;SDS011;13725;51.170;4.442;2023-02-08T08:39:15;25.77;;;12.40;;
25922;SDS011;13725;51.170;4.442;2023-02-08T08:41:40;22.52;;;12.18;;
25922;SDS011;13725;51.170;4.442;2023-02-08T08:44:07;20.13;;;12.02;;
25922;SDS011;13725;51.170;4.442;2023-02-08T08:46:33;23.25;;;13.07;;
25922;SDS011;13725;51.170;4.442;2023-02-08T08:49:00;25.05;;;13.93;;
25922;SDS011;13725;51.170;4.442;2023-02-08T08:51:27;20.10;;;12.45;;
25922;SDS011;13725;51.170;4.442;2023-02-08T08:53:53;18.77;;;12.00;;
25922;SDS011;13725;51.170;4.442;2023-02-08T08:56:18;20.83;;;12.50;;
25922;SDS011;13725;51.170;4.442;2023-02-08T08:58:44;22.55;;;13.07;;
25922;SDS011;13725;51.170;4.442;2023-02-08T09:01:10;23.70;;;12.82;;
25922;SDS011;13725;51.170;4.442;2023-02-08T09:03:38;24.25;;;13.45;;
25922;SDS011;13725;51.170;4.442;2023-02-08T09:06:03;19.67;;;12.60;;
25922;SDS011;13725;51.170;4.442;2023-02-08T09:08:29;19.63;;;12.20;;
25922;SDS011;13725;51.170;4.442;2023-02-08T09:10:55;24.02;;;12.68;;
25922;SDS011;13725;51.170;4.442;2023-02-08T09:13:21;23.52;;;11.93;;
25922;SDS011;13725;51.170;4.442;2023-02-08T09:15:47;16.90;;;11.32;;
25922;SDS011;13725;51.170;4.442;2023-02-08T09:18:13;19.80;;;11.65;;
25922;SDS011;13725;51.170;4.442;2023-02-08T09:20:39;20.25;;;12.05;;
25922;SDS011;13725;51.170;4.442;2023-02-08T09:23:05;18.05;;;11.27;;
25922;SDS011;13725;51.170;4.442;2023-02-08T09:25:31;16.48;;;10.98;;
25922;SDS011;13725;51.170;4.442;2023-02-08T09:27:57;16.40;;;10.90;;
25922;SDS011;13725;51.170;4.442;2023-02-08T09:30:23;14.82;;;10.43;;
25922;SDS011;13725;51.170;4.442;2023-02-08T09:32:48;18.50;;;11.25;;
25922;SDS011;13725;51.170;4.442;2023-02-08T09:35:14;18.63;;;11.18;;
25922;SDS011;13725;51.170;4.442;2023-02-08T09:37:40;17.15;;;11.05;;
25922;SDS011;13725;51.170;4.442;2023-02-08T09:40:06;20.65;;;10.93;;
25922;SDS011;13725;51.170;4.442;2023-02-08T09:42:39;19.75;;;10.82;;
25922;SDS011;13725;51.170;4.442;2023-02-08T09:47:35;13.75;;;9.45;;
25922;SDS011;13725;51.170;4.442;2023-02-08T09:52:54;14.32;;;9.60;;
25922;SDS011;13725;51.170;4.442;2023-02-08T09:55:56;15.70;;;9.48;;
25922;SDS011;13725;51.170;4.442;2023-02-08T10:01:04;15.07;;;8.73;;
25922;SDS011;13725;51.170;4.442;2023-02-08T10:03:38;14.38;;;8.77;;
25922;SDS011;13725;51.170;4.442;2023-02-08T10:06:08;13.07;;;8.88;;
25922;SDS011;13725;51.170;4.442;2023-02-08T10:08:35;15.25;;;8.90;;
25922;SDS011;13725;51.170;4.442;2023-02-08T10:11:09;10.38;;;8.25;;
25922;SDS011;13725;51.170;4.442;2023-02-08T10:16:35;12.35;;;8.38;;
25922;SDS011;13725;51.170;4.442;2023-02-08T10:32:53;14.80;;;8.13;;
25922;SDS011;13725;51.170;4.442;2023-02-08T10:35:59;10.98;;;8.15;;
25922;SDS011;13725;51.170;4.442;2023-02-08T10:40:50;11.77;;;7.65;;
25922;SDS011;13725;51.170;4.442;2023-02-08T10:46:23;8.15;;;7.10;;
25922;SDS011;13725;51.170;4.442;2023-02-08T10:49:09;9.30;;;6.50;;
25922;SDS011;13725;51.170;4.442;2023-02-08T10:51:46;8.57;;;6.70;;
25922;SDS011;13725;51.170;4.442;2023-02-08T10:54:12;8.65;;;7.25;;
25922;SDS011;13725;51.170;4.442;2023-02-08T10:56:41;9.20;;;6.22;;
25922;SDS011;13725;51.170;4.442;2023-02-08T10:59:36;11.10;;;6.43;;
25922;SDS011;13725;51.170;4.442;2023-02-08T11:02:33;8.40;;;6.20;;
25922;SDS011;13725;51.170;4.442;2023-02-08T11:05:01;12.00;;;6.45;;
25922;SDS011;13725;51.170;4.442;2023-02-08T11:07:29;8.32;;;5.95;;
25922;SDS011;13725;51.170;4.442;2023-02-08T11:12:56;14.00;;;6.85;;
25922;SDS011;13725;51.170;4.442;2023-02-08T11:15:29;8.18;;;5.93;;
25922;SDS011;13725;51.170;4.442;2023-02-08T11:18:19;8.43;;;5.70;;
25922;SDS011;13725;51.170;4.442;2023-02-08T11:21:01;9.55;;;6.18;;
25922;SDS011;13725;51.170;4.442;2023-02-08T11:23:49;11.38;;;6.78;;
25922;SDS011;13725;51.170;4.442;2023-02-08T11:29:01;9.63;;;6.65;;
25922;SDS011;13725;51.170;4.442;2023-02-08T11:31:30;8.23;;;6.40;;
25922;SDS011;13725;51.170;4.442;2023-02-08T11:33:57;8.90;;;6.82;;
25922;SDS011;13725;51.170;4.442;2023-02-08T11:36:27;9.45;;;7.20;;
25922;SDS011;13725;51.170;4.442;2023-02-08T11:38:54;12.30;;;7.65;;
25922;SDS011;13725;51.170;4.442;2023-02-08T11:41:21;10.18;;;7.22;;
25922;SDS011;13725;51.170;4.442;2023-02-08T11:44:11;11.32;;;7.20;;
25922;SDS011;13725;51.170;4.442;2023-02-08T11:46:37;8.93;;;6.80;;
25922;SDS011;13725;51.170;4.442;2023-02-08T11:49:06;11.57;;;6.45;;
25922;SDS011;13725;51.170;4.442;2023-02-08T11:51:48;16.55;;;6.80;;
25922;SDS011;13725;51.170;4.442;2023-02-08T11:57:16;8.02;;;6.50;;
25922;SDS011;13725;51.170;4.442;2023-02-08T11:59:47;9.05;;;5.55;;
25922;SDS011;13725;51.170;4.442;2023-02-08T12:02:57;12.15;;;5.82;;
25922;SDS011;13725;51.170;4.442;2023-02-08T12:05:14;11.38;;;5.85;;
25922;SDS011;13725;51.170;4.442;2023-02-08T12:10:36;8.70;;;6.05;;
25922;SDS011;13725;51.170;4.442;2023-02-08T12:13:30;7.47;;;5.47;;
25922;SDS011;13725;51.170;4.442;2023-02-08T12:16:19;8.45;;;5.00;;
25922;SDS011;13725;51.170;4.442;2023-02-08T12:22:00;8.35;;;5.82;;
25922;SDS011;13725;51.170;4.442;2023-02-08T12:24:41;8.52;;;5.07;;
25922;SDS011;13725;51.170;4.442;2023-02-08T12:37:52;4.53;;;3.63;;
25922;SDS011;13725;51.170;4.442;2023-02-08T12:43:50;4.93;;;3.60;;
25922;SDS011;13725;51.170;4.442;2023-02-08T12:46:45;4.53;;;3.35;;
25922;SDS011;13725;51.170;4.442;2023-02-08T12:51:55;6.60;;;3.70;;
25922;SDS011;13725;51.170;4.442;2023-02-08T12:54:47;5.40;;;3.53;;
25922;SDS011;13725;51.170;4.442;2023-02-08T12:57:18;5.43;;;3.83;;
25922;SDS011;13725;51.170;4.442;2023-02-08T13:00:07;6.38;;;4.63;;
25922;SDS011;13725;51.170;4.442;2023-02-08T13:03:05;6.80;;;3.65;;
25922;SDS011;13725;51.170;4.442;2023-02-08T13:05:49;5.65;;;3.75;;
25922;SDS011;13725;51.170;4.442;2023-02-08T13:08:25;5.93;;;3.17;;
25922;SDS011;13725;51.170;4.442;2023-02-08T13:11:19;3.67;;;3.28;;
25922;SDS011;13725;51.170;4.442;2023-02-08T13:14:41;4.78;;;3.75;;
25922;SDS011;13725;51.170;4.442;2023-02-08T13:16:54;5.85;;;3.88;;
25922;SDS011;13725;51.170;4.442;2023-02-08T13:19:45;7.65;;;3.92;;
25922;SDS011;13725;51.170;4.442;2023-02-08T13:22:15;5.07;;;3.72;;
25922;SDS011;13725;51.170;4.442;2023-02-08T13:24:42;6.28;;;4.13;;
25922;SDS011;13725;51.170;4.442;2023-02-08T13:27:14;6.05;;;3.92;;
25922;SDS011;13725;51.170;4.442;2023-02-08T13:29:48;4.93;;;3.67;;
25922;SDS011;13725;51.170;4.442;2023-02-08T13:32:25;5.28;;;3.92;;
25922;SDS011;13725;51.170;4.442;2023-02-08T13:37:36;6.43;;;3.53;;
25922;SDS011;13725;51.170;4.442;2023-02-08T13:42:41;6.95;;;3.85;;
25922;SDS011;13725;51.170;4.442;2023-02-08T13:45:24;6.18;;;4.18;;
25922;SDS011;13725;51.170;4.442;2023-02-08T13:47:56;6.60;;;3.28;;
25922;SDS011;13725;51.170;4.442;2023-02-08T13:53:03;4.45;;;3.10;;
25922;SDS011;13725;51.170;4.442;2023-02-08T14:03:33;9.18;;;3.15;;
25922;SDS011;13725;51.170;4.442;2023-02-08T14:06:03;4.32;;;2.92;;
25922;SDS011;13725;51.170;4.442;2023-02-08T14:13:50;4.28;;;2.72;;
25922;SDS011;13725;51.170;4.442;2023-02-08T14:16:40;4.88;;;3.20;;
25922;SDS011;13725;51.170;4.442;2023-02-08T14:21:44;7.10;;;2.80;;
25922;SDS011;13725;51.170;4.442;2023-02-08T14:24:29;7.00;;;3.20;;
25922;SDS011;13725;51.170;4.442;2023-02-08T14:27:06;6.68;;;3.22;;
25922;SDS011;13725;51.170;4.442;2023-02-08T14:29:53;6.85;;;3.90;;
25922;SDS011;13725;51.170;4.442;2023-02-08T14:32:44;9.63;;;3.40;;
25922;SDS011;13725;51.170;4.442;2023-02-08T14:35:20;8.13;;;4.60;;
25922;SDS011;13725;51.170;4.442;2023-02-08T14:37:49;5.18;;;3.38;;
25922;SDS011;13725;51.170;4.442;2023-02-08T14:45:43;7.95;;;3.47;;
25922;SDS011;13725;51.170;4.442;2023-02-08T14:48:26;4.72;;;3.45;;
25922;SDS011;13725;51.170;4.442;2023-02-08T14:56:18;4.80;;;2.80;;
25922;SDS011;13725;51.170;4.442;2023-02-08T14:58:59;4.07;;;2.72;;
25922;SDS011;13725;51.170;4.442;2023-02-08T15:04:32;6.45;;;3.40;;
25922;SDS011;13725;51.170;4.442;2023-02-08T15:09:53;9.07;;;3.40;;
25922;SDS011;13725;51.170;4.442;2023-02-08T15:12:26;7.78;;;3.53;;
25922;SDS011;13725;51.170;4.442;2023-02-08T15:14:56;6.32;;;3.55;;
25922;SDS011;13725;51.170;4.442;2023-02-08T15:19:56;5.30;;;3.20;;
25922;SDS011;13725;51.170;4.442;2023-02-08T15:24:52;4.70;;;3.28;;
25922;SDS011;13725;51.170;4.442;2023-02-08T15:27:23;7.47;;;2.83;;
25922;SDS011;13725;51.170;4.442;2023-02-08T15:32:18;4.97;;;2.80;;
25922;SDS011;13725;51.170;4.442;2023-02-08T15:34:58;6.18;;;3.03;;
25922;SDS011;13725;51.170;4.442;2023-02-08T15:37:26;6.45;;;3.25;;
25922;SDS011;13725;51.170;4.442;2023-02-08T15:39:57;6.15;;;3.42;;
25922;SDS011;13725;51.170;4.442;2023-02-08T15:42:25;4.60;;;2.53;;
25922;SDS011;13725;51.170;4.442;2023-02-08T15:44:55;6.40;;;3.13;;
25922;SDS011;13725;51.170;4.442;2023-02-08T15:47:24;4.53;;;2.92;;
25922;SDS011;13725;51.170;4.442;2023-02-08T15:49:52;7.30;;;3.10;;
25922;SDS011;13725;51.170;4.442;2023-02-08T15:52:38;7.88;;;2.53;;
25922;SDS011;13725;51.170;4.442;2023-02-08T15:55:11;4.80;;;3.13;;
25922;SDS011;13725;51.170;4.442;2023-02-08T15:57:41;5.82;;;2.80;;
25922;SDS011;13725;51.170;4.442;2023-02-08T16:00:13;5.90;;;3.20;;
25922;SDS011;13725;51.170;4.442;2023-02-08T16:02:41;5.82;;;3.05;;
25922;SDS011;13725;51.170;4.442;2023-02-08T16:05:21;5.00;;;2.80;;
25922;SDS011;13725;51.170;4.442;2023-02-08T16:07:49;8.05;;;3.35;;
25922;SDS011;13725;51.170;4.442;2023-02-08T16:13:14;7.82;;;2.80;;
25922;SDS011;13725;51.170;4.442;2023-02-08T16:15:47;6.72;;;2.88;;
25922;SDS011;13725;51.170;4.442;2023-02-08T16:29:31;4.55;;;3.15;;
25922;SDS011;13725;51.170;4.442;2023-02-08T16:32:41;5.97;;;3.28;;
25922;SDS011;13725;51.170;4.442;2023-02-08T16:34:55;9.38;;;3.47;;
25922;SDS011;13725;51.170;4.442;2023-02-08T16:37:24;5.43;;;3.30;;
25922;SDS011;13725;51.170;4.442;2023-02-08T16:42:35;6.95;;;3.25;;
25922;SDS011;13725;51.170;4.442;2023-02-08T16:47:43;8.35;;;3.75;;
25922;SDS011;13725;51.170;4.442;2023-02-08T16:50:12;6.95;;;3.28;;
25922;SDS011;13725;51.170;4.442;2023-02-08T16:52:47;10.40;;;3.92;;
25922;SDS011;13725;51.170;4.442;2023-02-08T16:55:22;8.60;;;3.45;;
25922;SDS011;13725;51.170;4.442;2023-02-08T16:57:51;5.72;;;3.35;;
25922;SDS011;13725;51.170;4.442;2023-02-08T17:00:22;5.55;;;3.35;;
25922;SDS011;13725;51.170;4.442;2023-02-08T17:02:55;7.45;;;3.72;;
25922;SDS011;13725;51.170;4.442;2023-02-08T17:05:23;5.82;;;3.65;;
25922;SDS011;13725;51.170;4.442;2023-02-08T17:07:53;6.50;;;3.75;;
25922;SDS011;13725;51.170;4.442;2023-02-08T17:12:57;7.38;;;3.38;;
25922;SDS011;13725;51.170;4.442;2023-02-08T17:15:24;6.85;;;3.88;;
25922;SDS011;13725;51.170;4.442;2023-02-08T17:17:50;8.73;;;4.10;;
25922;SDS011;13725;51.170;4.442;2023-02-08T17:20:21;8.25;;;4.13;;
25922;SDS011;13725;51.170;4.442;2023-02-08T17:22:49;9.55;;;4.47;;
25922;SDS011;13725;51.170;4.442;2023-02-08T17:25:16;7.47;;;3.65;;
25922;SDS011;13725;51.170;4.442;2023-02-08T17:27:50;7.38;;;4.47;;
25922;SDS011;13725;51.170;4.442;2023-02-08T17:30:26;10.57;;;4.28;;
25922;SDS011;13725;51.170;4.442;2023-02-08T17:32:55;8.85;;;4.20;;
25922;SDS011;13725;51.170;4.442;2023-02-08T17:35:24;11.95;;;5.68;;
25922;SDS011;13725;51.170;4.442;2023-02-08T17:37:52;22.73;;;7.10;;
25922;SDS011;13725;51.170;4.442;2023-02-08T17:40:21;13.95;;;6.97;;
25922;SDS011;13725;51.170;4.442;2023-02-08T17:42:51;18.33;;;5.95;;
25922;SDS011;13725;51.170;4.442;2023-02-08T17:45:17;18.63;;;7.93;;
25922;SDS011;13725;51.170;4.442;2023-02-08T17:47:43;19.95;;;7.68;;